sensor_id;sensor_type;location;lat;lon;timestamp;pressure;altitude;pressure_sealevel;temperature;humidity
75146;BME280;63641;46.526;24.612;2023-07-20T00:06:52;96669.88;;;21.06;72.83
75146;BME280;63641;46.526;24.612;2023-07-20T00:09:19;96676.50;;;21.05;72.92
75146;BME280;63641;46.526;24.612;2023-07-20T00:11:49;96649.97;;;20.93;72.76
75146;BME280;63641;46.526;24.612;2023-07-20T00:14:19;96656.34;;;20.97;72.98
75146;BME280;63641;46.526;24.612;2023-07-20T00:16:46;96665.81;;;21.00;73.15
75146;BME280;63641;46.526;24.612;2023-07-20T00:19:15;96668.50;;;20.96;73.07
75146;BME280;63641;46.526;24.612;2023-07-20T00:21:42;96670.38;;;20.92;73.30
75146;BME280;63641;46.526;24.612;2023-07-20T00:24:09;96671.84;;;20.86;73.63
75146;BME280;63641;46.526;24.612;2023-07-20T00:26:36;96660.22;;;20.73;73.66
75146;BME280;63641;46.526;24.612;2023-07-20T00:29:02;96667.69;;;20.73;73.84
75146;BME280;63641;46.526;24.612;2023-07-20T00:31:30;96644.25;;;20.60;73.83
75146;BME280;63641;46.526;24.612;2023-07-20T00:33:57;96659.28;;;20.66;73.85
75146;BME280;63641;46.526;24.612;2023-07-20T00:36:23;96652.63;;;20.67;73.68
75146;BME280;63641;46.526;24.612;2023-07-20T00:38:50;96657.34;;;20.66;73.43
75146;BME280;63641;46.526;24.612;2023-07-20T00:41:17;96650.28;;;20.69;73.47
75146;BME280;63641;46.526;24.612;2023-07-20T00:43:44;96649.56;;;20.72;73.43
75146;BME280;63641;46.526;24.612;2023-07-20T00:46:11;96640.13;;;20.69;73.35
75146;BME280;63641;46.526;24.612;2023-07-20T00:48:38;96622.56;;;20.55;73.41
75146;BME280;63641;46.526;24.612;2023-07-20T00:51:06;96630.81;;;20.55;73.55
75146;BME280;63641;46.526;24.612;2023-07-20T00:53:33;96625.66;;;20.53;73.46
75146;BME280;63641;46.526;24.612;2023-07-20T00:55:59;96625.31;;;20.55;73.35
75146;BME280;63641;46.526;24.612;2023-07-20T00:58:26;96622.84;;;20.49;73.38
75146;BME280;63641;46.526;24.612;2023-07-20T01:00:53;96619.13;;;20.42;73.30
75146;BME280;63641;46.526;24.612;2023-07-20T01:03:20;96625.13;;;20.47;73.31
75146;BME280;63641;46.526;24.612;2023-07-20T01:11:13;96616.22;;;20.35;73.29
75146;BME280;63641;46.526;24.612;2023-07-20T01:13:44;96623.69;;;20.34;73.47
75146;BME280;63641;46.526;24.612;2023-07-20T01:16:11;96620.06;;;20.30;73.39
75146;BME280;63641;46.526;24.612;2023-07-20T01:18:38;96632.94;;;20.26;73.57
75146;BME280;63641;46.526;24.612;2023-07-20T01:21:11;96632.78;;;20.19;73.87
75146;BME280;63641;46.526;24.612;2023-07-20T01:26:54;96639.16;;;20.23;73.85
75146;BME280;63641;46.526;24.612;2023-07-20T01:29:57;96637.13;;;20.20;73.82
75146;BME280;63641;46.526;24.612;2023-07-20T01:32:29;96622.88;;;20.14;73.82
75146;BME280;63641;46.526;24.612;2023-07-20T01:34:58;96628.47;;;20.18;74.04
75146;BME280;63641;46.526;24.612;2023-07-20T01:37:26;96611.38;;;20.09;73.84
75146;BME280;63641;46.526;24.612;2023-07-20T01:39:56;96614.19;;;20.12;73.81
75146;BME280;63641;46.526;24.612;2023-07-20T01:42:23;96618.97;;;20.15;74.14
75146;BME280;63641;46.526;24.612;2023-07-20T01:44:51;96623.31;;;20.16;74.14
75146;BME280;63641;46.526;24.612;2023-07-20T01:47:21;96628.00;;;20.16;74.20
75146;BME280;63641;46.526;24.612;2023-07-20T01:49:47;96617.75;;;20.13;74.15
75146;BME280;63641;46.526;24.612;2023-07-20T01:52:14;96612.53;;;20.08;74.27
75146;BME280;63641;46.526;24.612;2023-07-20T01:54:41;96617.66;;;20.09;74.30
75146;BME280;63641;46.526;24.612;2023-07-20T01:57:08;96606.59;;;20.06;74.55
75146;BME280;63641;46.526;24.612;2023-07-20T01:59:35;96629.75;;;20.05;74.29
75146;BME280;63641;46.526;24.612;2023-07-20T02:02:02;96611.16;;;19.98;74.50
75146;BME280;63641;46.526;24.612;2023-07-20T02:04:29;96617.50;;;20.02;74.51
75146;BME280;63641;46.526;24.612;2023-07-20T02:06:56;96619.91;;;20.03;74.42
75146;BME280;63641;46.526;24.612;2023-07-20T02:09:22;96617.44;;;19.98;74.53
75146;BME280;63641;46.526;24.612;2023-07-20T02:11:49;96614.53;;;19.91;74.43
75146;BME280;63641;46.526;24.612;2023-07-20T02:14:16;96619.38;;;19.98;74.38
75146;BME280;63641;46.526;24.612;2023-07-20T02:16:43;96613.91;;;19.98;74.26
75146;BME280;63641;46.526;24.612;2023-07-20T02:19:10;96613.41;;;19.92;74.15
75146;BME280;63641;46.526;24.612;2023-07-20T02:21:37;96624.00;;;19.94;74.04
75146;BME280;63641;46.526;24.612;2023-07-20T02:24:04;96619.59;;;19.89;73.89
75146;BME280;63641;46.526;24.612;2023-07-20T02:26:31;96610.13;;;19.87;73.59
75146;BME280;63641;46.526;24.612;2023-07-20T02:28:57;96594.59;;;19.75;73.88
75146;BME280;63641;46.526;24.612;2023-07-20T02:31:24;96593.25;;;19.69;74.04
75146;BME280;63641;46.526;24.612;2023-07-20T02:33:51;96603.53;;;19.72;73.91
75146;BME280;63641;46.526;24.612;2023-07-20T02:36:17;96605.47;;;19.71;73.94
75146;BME280;63641;46.526;24.612;2023-07-20T02:38:45;96604.16;;;19.65;73.85
75146;BME280;63641;46.526;24.612;2023-07-20T02:41:13;96613.00;;;19.59;73.81
75146;BME280;63641;46.526;24.612;2023-07-20T02:43:44;96616.03;;;19.53;73.99
75146;BME280;63641;46.526;24.612;2023-07-20T02:46:11;96621.50;;;19.53;74.35
75146;BME280;63641;46.526;24.612;2023-07-20T02:48:37;96619.06;;;19.48;74.02
75146;BME280;63641;46.526;24.612;2023-07-20T02:51:04;96609.13;;;19.44;74.21
75146;BME280;63641;46.526;24.612;2023-07-20T02:53:31;96619.22;;;19.40;74.03
75146;BME280;63641;46.526;24.612;2023-07-20T02:55:57;96621.63;;;19.41;74.05
75146;BME280;63641;46.526;24.612;2023-07-20T02:58:24;96614.81;;;19.35;74.18
75146;BME280;63641;46.526;24.612;2023-07-20T03:00:51;96615.25;;;19.37;74.24
75146;BME280;63641;46.526;24.612;2023-07-20T03:03:18;96602.66;;;19.36;74.44
75146;BME280;63641;46.526;24.612;2023-07-20T03:05:45;96595.09;;;19.29;74.27
75146;BME280;63641;46.526;24.612;2023-07-20T03:08:11;96606.84;;;19.30;74.41
75146;BME280;63641;46.526;24.612;2023-07-20T03:10:39;96623.75;;;19.32;74.20
75146;BME280;63641;46.526;24.612;2023-07-20T03:13:07;96629.59;;;19.30;74.31
75146;BME280;63641;46.526;24.612;2023-07-20T03:15:34;96634.72;;;19.32;74.39
75146;BME280;63641;46.526;24.612;2023-07-20T03:18:01;96636.66;;;19.31;74.48
75146;BME280;63641;46.526;24.612;2023-07-20T03:20:28;96640.09;;;19.28;74.64
75146;BME280;63641;46.526;24.612;2023-07-20T03:22:55;96640.09;;;19.28;74.49
75146;BME280;63641;46.526;24.612;2023-07-20T03:25:21;96640.47;;;19.27;74.72
75146;BME280;63641;46.526;24.612;2023-07-20T03:27:50;96643.66;;;19.29;74.61
75146;BME280;63641;46.526;24.612;2023-07-20T03:30:17;96644.81;;;19.28;74.74
75146;BME280;63641;46.526;24.612;2023-07-20T03:32:44;96645.59;;;19.28;74.75
75146;BME280;63641;46.526;24.612;2023-07-20T03:35:10;96643.22;;;19.27;74.71
75146;BME280;63641;46.526;24.612;2023-07-20T03:37:38;96644.81;;;19.28;74.68
75146;BME280;63641;46.526;24.612;2023-07-20T03:40:05;96647.53;;;19.28;74.57
75146;BME280;63641;46.526;24.612;2023-07-20T03:42:33;96653.03;;;19.28;74.67
75146;BME280;63641;46.526;24.612;2023-07-20T03:45:00;96638.72;;;19.19;74.69
75146;BME280;63641;46.526;24.612;2023-07-20T03:47:27;96658.50;;;19.28;74.79
75146;BME280;63641;46.526;24.612;2023-07-20T03:49:54;96668.31;;;19.29;74.72
75146;BME280;63641;46.526;24.612;2023-07-20T03:52:20;96680.56;;;19.31;74.83
75146;BME280;63641;46.526;24.612;2023-07-20T03:54:47;96669.06;;;19.26;74.72
75146;BME280;63641;46.526;24.612;2023-07-20T03:57:14;96668.31;;;19.29;74.93
75146;BME280;63641;46.526;24.612;2023-07-20T03:59:45;96672.13;;;19.24;74.98
75146;BME280;63641;46.526;24.612;2023-07-20T04:02:12;96679.22;;;19.25;74.72
75146;BME280;63641;46.526;24.612;2023-07-20T04:04:39;96679.66;;;19.27;74.91
75146;BME280;63641;46.526;24.612;2023-07-20T04:07:05;96684.09;;;19.32;75.06
75146;BME280;63641;46.526;24.612;2023-07-20T04:09:32;96682.97;;;19.33;74.97
75146;BME280;63641;46.526;24.612;2023-07-20T04:11:59;96684.78;;;19.29;75.28
75146;BME280;63641;46.526;24.612;2023-07-20T04:14:26;96672.69;;;19.30;75.51
75146;BME280;63641;46.526;24.612;2023-07-20T04:16:53;96678.25;;;19.34;75.73
75146;BME280;63641;46.526;24.612;2023-07-20T04:19:20;96687.09;;;19.43;75.78
75146;BME280;63641;46.526;24.612;2023-07-20T04:21:46;96689.84;;;19.43;75.93
75146;BME280;63641;46.526;24.612;2023-07-20T04:24:13;96688.78;;;19.47;75.91
75146;BME280;63641;46.526;24.612;2023-07-20T04:26:40;96693.22;;;19.52;76.08
75146;BME280;63641;46.526;24.612;2023-07-20T04:29:07;96677.97;;;19.54;76.15
75146;BME280;63641;46.526;24.612;2023-07-20T04:31:33;96676.31;;;19.50;76.24
75146;BME280;63641;46.526;24.612;2023-07-20T04:34:00;96683.13;;;19.56;76.46
75146;BME280;63641;46.526;24.612;2023-07-20T04:36:27;96697.47;;;19.65;76.25
75146;BME280;63641;46.526;24.612;2023-07-20T04:38:54;96691.19;;;19.65;76.22
75146;BME280;63641;46.526;24.612;2023-07-20T04:41:21;96696.75;;;19.68;76.55
75146;BME280;63641;46.526;24.612;2023-07-20T04:43:47;96697.56;;;19.69;76.43
75146;BME280;63641;46.526;24.612;2023-07-20T04:46:14;96707.91;;;19.75;76.43
75146;BME280;63641;46.526;24.612;2023-07-20T04:48:41;96713.31;;;19.72;76.99
75146;BME280;63641;46.526;24.612;2023-07-20T04:51:08;96703.50;;;19.71;77.15
75146;BME280;63641;46.526;24.612;2023-07-20T04:53:35;96719.25;;;19.74;77.25
75146;BME280;63641;46.526;24.612;2023-07-20T04:56:02;96715.78;;;19.77;77.41
75146;BME280;63641;46.526;24.612;2023-07-20T04:58:28;96715.06;;;19.80;77.64
75146;BME280;63641;46.526;24.612;2023-07-20T05:00:55;96710.75;;;19.79;77.63
75146;BME280;63641;46.526;24.612;2023-07-20T05:03:21;96704.19;;;19.84;77.61
75146;BME280;63641;46.526;24.612;2023-07-20T05:05:48;96706.75;;;19.92;77.45
75146;BME280;63641;46.526;24.612;2023-07-20T05:08:16;96684.88;;;19.96;77.48
75146;BME280;63641;46.526;24.612;2023-07-20T05:10:43;96690.88;;;20.01;77.54
75146;BME280;63641;46.526;24.612;2023-07-20T05:13:10;96692.91;;;20.05;77.42
75146;BME280;63641;46.526;24.612;2023-07-20T05:15:37;96698.56;;;20.12;77.69
75146;BME280;63641;46.526;24.612;2023-07-20T05:18:03;96695.50;;;20.17;77.51
75146;BME280;63641;46.526;24.612;2023-07-20T05:20:30;96694.47;;;20.21;77.54
75146;BME280;63641;46.526;24.612;2023-07-20T05:22:58;96683.53;;;20.25;77.56
75146;BME280;63641;46.526;24.612;2023-07-20T05:25:25;96691.13;;;20.32;77.64
75146;BME280;63641;46.526;24.612;2023-07-20T05:27:56;96687.59;;;20.31;77.61
75146;BME280;63641;46.526;24.612;2023-07-20T05:30:23;96680.59;;;20.34;77.47
75146;BME280;63641;46.526;24.612;2023-07-20T05:32:50;96690.63;;;20.45;77.46
75146;BME280;63641;46.526;24.612;2023-07-20T05:35:19;96691.31;;;20.58;77.12
75146;BME280;63641;46.526;24.612;2023-07-20T05:37:46;96686.19;;;20.57;77.01
75146;BME280;63641;46.526;24.612;2023-07-20T05:40:14;96691.25;;;20.74;76.95
75146;BME280;63641;46.526;24.612;2023-07-20T05:42:45;96685.91;;;20.81;76.47
75146;BME280;63641;46.526;24.612;2023-07-20T05:45:12;96685.34;;;20.95;75.91
75146;BME280;63641;46.526;24.612;2023-07-20T05:47:39;96686.72;;;21.05;75.54
75146;BME280;63641;46.526;24.612;2023-07-20T05:50:06;96687.69;;;21.16;75.35
75146;BME280;63641;46.526;24.612;2023-07-20T05:52:33;96673.94;;;21.16;75.11
75146;BME280;63641;46.526;24.612;2023-07-20T05:55:00;96684.41;;;21.30;74.24
75146;BME280;63641;46.526;24.612;2023-07-20T05:57:26;96675.53;;;21.36;74.28
75146;BME280;63641;46.526;24.612;2023-07-20T05:59:53;96677.28;;;21.48;74.28
75146;BME280;63641;46.526;24.612;2023-07-20T06:02:20;96671.16;;;21.58;74.00
75146;BME280;63641;46.526;24.612;2023-07-20T06:04:47;96678.38;;;21.66;73.63
75146;BME280;63641;46.526;24.612;2023-07-20T06:07:13;96671.06;;;21.78;73.60
75146;BME280;63641;46.526;24.612;2023-07-20T06:09:40;96671.97;;;21.85;73.24
75146;BME280;63641;46.526;24.612;2023-07-20T06:12:07;96679.75;;;22.06;72.86
75146;BME280;63641;46.526;24.612;2023-07-20T06:14:35;96676.84;;;22.22;72.84
75146;BME280;63641;46.526;24.612;2023-07-20T06:17:01;96681.38;;;22.37;72.72
75146;BME280;63641;46.526;24.612;2023-07-20T06:19:29;96681.56;;;22.52;72.53
75146;BME280;63641;46.526;24.612;2023-07-20T06:21:55;96683.75;;;22.69;72.10
75146;BME280;63641;46.526;24.612;2023-07-20T06:24:22;96678.81;;;22.85;71.82
75146;BME280;63641;46.526;24.612;2023-07-20T06:26:49;96689.28;;;23.03;71.83
75146;BME280;63641;46.526;24.612;2023-07-20T06:29:15;96676.78;;;23.12;71.23
75146;BME280;63641;46.526;24.612;2023-07-20T06:31:42;96693.56;;;23.37;70.89
75146;BME280;63641;46.526;24.612;2023-07-20T06:34:09;96692.19;;;23.61;69.93
75146;BME280;63641;46.526;24.612;2023-07-20T06:36:36;96682.13;;;23.80;69.33
75146;BME280;63641;46.526;24.612;2023-07-20T06:39:02;96684.59;;;23.99;68.47
75146;BME280;63641;46.526;24.612;2023-07-20T06:41:32;96668.88;;;24.10;67.55
75146;BME280;63641;46.526;24.612;2023-07-20T06:44:02;96681.66;;;24.37;67.18
75146;BME280;63641;46.526;24.612;2023-07-20T06:46:29;96682.22;;;24.56;66.22
75146;BME280;63641;46.526;24.612;2023-07-20T06:48:56;96681.06;;;24.68;66.47
75146;BME280;63641;46.526;24.612;2023-07-20T06:51:26;96677.53;;;24.75;65.33
75146;BME280;63641;46.526;24.612;2023-07-20T06:53:53;96691.41;;;24.93;65.59
75146;BME280;63641;46.526;24.612;2023-07-20T06:56:19;96686.69;;;24.97;64.94
75146;BME280;63641;46.526;24.612;2023-07-20T06:58:51;96684.38;;;25.13;64.96
75146;BME280;63641;46.526;24.612;2023-07-20T07:01:18;96689.94;;;25.27;63.85
75146;BME280;63641;46.526;24.612;2023-07-20T07:03:45;96691.94;;;25.41;63.33
75146;BME280;63641;46.526;24.612;2023-07-20T07:06:15;96689.19;;;25.56;62.82
75146;BME280;63641;46.526;24.612;2023-07-20T07:08:44;96697.94;;;25.79;62.65
75146;BME280;63641;46.526;24.612;2023-07-20T07:11:11;96689.59;;;25.97;62.26
75146;BME280;63641;46.526;24.612;2023-07-20T07:13:38;96706.59;;;26.20;61.67
75146;BME280;63641;46.526;24.612;2023-07-20T07:16:04;96698.22;;;26.42;61.66
75146;BME280;63641;46.526;24.612;2023-07-20T07:18:35;96698.97;;;26.64;61.32
75146;BME280;63641;46.526;24.612;2023-07-20T07:21:02;96689.38;;;26.83;60.80
75146;BME280;63641;46.526;24.612;2023-07-20T07:23:29;96690.53;;;26.96;60.52
75146;BME280;63641;46.526;24.612;2023-07-20T07:25:55;96700.75;;;27.13;59.72
75146;BME280;63641;46.526;24.612;2023-07-20T07:28:22;96707.78;;;27.36;59.24
75146;BME280;63641;46.526;24.612;2023-07-20T07:30:49;96694.97;;;27.49;58.76
75146;BME280;63641;46.526;24.612;2023-07-20T07:33:16;96694.06;;;27.66;58.17
75146;BME280;63641;46.526;24.612;2023-07-20T07:35:42;96686.78;;;27.83;57.77
75146;BME280;63641;46.526;24.612;2023-07-20T07:38:09;96694.59;;;27.99;57.52
75146;BME280;63641;46.526;24.612;2023-07-20T07:40:58;96697.19;;;28.21;56.91
75146;BME280;63641;46.526;24.612;2023-07-20T07:43:25;96694.31;;;28.28;56.17
75146;BME280;63641;46.526;24.612;2023-07-20T07:45:53;96691.84;;;28.40;56.60
75146;BME280;63641;46.526;24.612;2023-07-20T07:48:21;96691.25;;;28.56;56.25
75146;BME280;63641;46.526;24.612;2023-07-20T07:50:48;96690.72;;;28.69;55.64
75146;BME280;63641;46.526;24.612;2023-07-20T07:53:16;96692.56;;;28.79;55.28
75146;BME280;63641;46.526;24.612;2023-07-20T07:55:43;96686.09;;;28.89;54.92
75146;BME280;63641;46.526;24.612;2023-07-20T07:58:10;96688.41;;;28.94;54.44
75146;BME280;63641;46.526;24.612;2023-07-20T08:00:36;96681.56;;;29.02;53.78
75146;BME280;63641;46.526;24.612;2023-07-20T08:03:05;96686.19;;;29.12;53.37
75146;BME280;63641;46.526;24.612;2023-07-20T08:05:33;96690.72;;;29.30;53.56
75146;BME280;63641;46.526;24.612;2023-07-20T08:08:02;96678.63;;;29.40;53.00
75146;BME280;63641;46.526;24.612;2023-07-20T08:10:30;96689.91;;;29.56;53.09
75146;BME280;63641;46.526;24.612;2023-07-20T08:12:57;96687.84;;;29.64;52.87
75146;BME280;63641;46.526;24.612;2023-07-20T08:15:24;96690.72;;;29.60;53.09
75146;BME280;63641;46.526;24.612;2023-07-20T08:17:51;96686.22;;;29.67;52.43
75146;BME280;63641;46.526;24.612;2023-07-20T08:20:18;96680.41;;;29.81;52.04
75146;BME280;63641;46.526;24.612;2023-07-20T08:22:45;96668.28;;;29.91;51.56
75146;BME280;63641;46.526;24.612;2023-07-20T08:25:14;96679.06;;;30.13;51.20
75146;BME280;63641;46.526;24.612;2023-07-20T08:27:40;96689.63;;;30.25;50.24
75146;BME280;63641;46.526;24.612;2023-07-20T08:30:08;96681.47;;;30.34;50.30
75146;BME280;63641;46.526;24.612;2023-07-20T08:32:35;96678.53;;;30.41;49.56
75146;BME280;63641;46.526;24.612;2023-07-20T08:35:02;96677.63;;;30.48;49.11
75146;BME280;63641;46.526;24.612;2023-07-20T08:37:28;96675.69;;;30.45;47.81
75146;BME280;63641;46.526;24.612;2023-07-20T08:39:55;96669.59;;;30.30;48.16
75146;BME280;63641;46.526;24.612;2023-07-20T08:42:22;96672.25;;;30.37;48.44
75146;BME280;63641;46.526;24.612;2023-07-20T08:44:49;96679.94;;;30.53;48.56
75146;BME280;63641;46.526;24.612;2023-07-20T08:47:20;96672.72;;;30.75;48.42
75146;BME280;63641;46.526;24.612;2023-07-20T08:49:50;96672.00;;;30.91;48.30
75146;BME280;63641;46.526;24.612;2023-07-20T08:52:17;96661.91;;;30.77;48.39
75146;BME280;63641;46.526;24.612;2023-07-20T08:54:44;96665.97;;;30.73;48.28
75146;BME280;63641;46.526;24.612;2023-07-20T08:57:13;96660.72;;;30.78;48.92
75146;BME280;63641;46.526;24.612;2023-07-20T08:59:41;96660.03;;;30.91;48.05
75146;BME280;63641;46.526;24.612;2023-07-20T09:02:11;96668.28;;;30.98;47.19
75146;BME280;63641;46.526;24.612;2023-07-20T09:04:45;96677.88;;;30.97;47.10
75146;BME280;63641;46.526;24.612;2023-07-20T09:07:12;96663.50;;;30.78;47.41
75146;BME280;63641;46.526;24.612;2023-07-20T09:09:40;96662.19;;;30.83;46.68
75146;BME280;63641;46.526;24.612;2023-07-20T09:12:15;96661.50;;;30.79;46.41
75146;BME280;63641;46.526;24.612;2023-07-20T09:14:46;96656.09;;;30.88;45.80
75146;BME280;63641;46.526;24.612;2023-07-20T09:17:13;96657.50;;;30.96;46.34
75146;BME280;63641;46.526;24.612;2023-07-20T09:19:46;96650.19;;;31.02;46.13
75146;BME280;63641;46.526;24.612;2023-07-20T09:22:14;96663.09;;;30.96;45.78
75146;BME280;63641;46.526;24.612;2023-07-20T09:24:41;96649.50;;;30.98;45.94
75146;BME280;63641;46.526;24.612;2023-07-20T09:27:10;96648.88;;;31.07;45.43
75146;BME280;63641;46.526;24.612;2023-07-20T09:29:50;96650.59;;;31.21;44.69
75146;BME280;63641;46.526;24.612;2023-07-20T09:32:19;96643.84;;;31.38;44.07
75146;BME280;63641;46.526;24.612;2023-07-20T09:34:50;96641.19;;;31.47;43.58
75146;BME280;63641;46.526;24.612;2023-07-20T09:37:22;96629.16;;;31.50;43.36
75146;BME280;63641;46.526;24.612;2023-07-20T09:39:51;96647.06;;;31.69;43.48
75146;BME280;63641;46.526;24.612;2023-07-20T09:42:22;96635.97;;;31.66;43.20
75146;BME280;63641;46.526;24.612;2023-07-20T09:44:55;96646.19;;;31.72;42.80
75146;BME280;63641;46.526;24.612;2023-07-20T09:47:23;96645.03;;;31.70;41.90
75146;BME280;63641;46.526;24.612;2023-07-20T09:49:59;96642.78;;;31.48;41.51
75146;BME280;63641;46.526;24.612;2023-07-20T09:52:31;96633.50;;;31.51;42.03
75146;BME280;63641;46.526;24.612;2023-07-20T09:55:02;96620.34;;;31.52;40.68
75146;BME280;63641;46.526;24.612;2023-07-20T09:57:30;96621.53;;;31.51;40.35
75146;BME280;63641;46.526;24.612;2023-07-20T09:59:57;96616.75;;;31.35;40.00
75146;BME280;63641;46.526;24.612;2023-07-20T10:02:46;96609.91;;;31.20;40.43
75146;BME280;63641;46.526;24.612;2023-07-20T10:05:13;96602.53;;;31.26;40.99
75146;BME280;63641;46.526;24.612;2023-07-20T10:07:48;96610.13;;;31.45;40.20
75146;BME280;63641;46.526;24.612;2023-07-20T10:10:17;96590.59;;;31.58;40.76
75146;BME280;63641;46.526;24.612;2023-07-20T10:12:47;96571.91;;;31.55;40.56
75146;BME280;63641;46.526;24.612;2023-07-20T10:15:23;96577.72;;;31.77;41.03
75146;BME280;63641;46.526;24.612;2023-07-20T10:20:27;96573.72;;;31.94;41.22
75146;BME280;63641;46.526;24.612;2023-07-20T10:22:55;96580.19;;;31.91;41.08
75146;BME280;63641;46.526;24.612;2023-07-20T10:25:23;96577.16;;;31.86;41.12
75146;BME280;63641;46.526;24.612;2023-07-20T10:27:50;96570.22;;;31.74;41.16
75146;BME280;63641;46.526;24.612;2023-07-20T10:30:17;96587.34;;;31.76;41.68
75146;BME280;63641;46.526;24.612;2023-07-20T10:32:45;96602.41;;;31.66;42.59
75146;BME280;63641;46.526;24.612;2023-07-20T10:35:16;96614.13;;;31.61;42.80
75146;BME280;63641;46.526;24.612;2023-07-20T10:37:59;96617.72;;;31.45;43.57
75146;BME280;63641;46.526;24.612;2023-07-20T10:40:28;96613.38;;;31.24;44.14
75146;BME280;63641;46.526;24.612;2023-07-20T10:43:02;96627.00;;;31.06;45.15
75146;BME280;63641;46.526;24.612;2023-07-20T10:45:42;96606.09;;;30.74;45.81
75146;BME280;63641;46.526;24.612;2023-07-20T10:50:43;96619.38;;;30.50;47.11
75146;BME280;63641;46.526;24.612;2023-07-20T10:53:15;96609.09;;;30.27;47.63
75146;BME280;63641;46.526;24.612;2023-07-20T10:55:42;96606.72;;;30.02;47.20
75146;BME280;63641;46.526;24.612;2023-07-20T10:58:14;96601.22;;;29.75;46.92
75146;BME280;63641;46.526;24.612;2023-07-20T11:00:57;96602.97;;;29.42;46.79
75146;BME280;63641;46.526;24.612;2023-07-20T11:03:30;96603.44;;;29.13;47.32
75146;BME280;63641;46.526;24.612;2023-07-20T11:09:10;96605.63;;;28.68;47.38
75146;BME280;63641;46.526;24.612;2023-07-20T11:11:38;96624.19;;;28.47;47.75
75146;BME280;63641;46.526;24.612;2023-07-20T11:14:10;96629.47;;;28.34;47.98
75146;BME280;63641;46.526;24.612;2023-07-20T11:16:47;96627.31;;;28.15;48.58
75146;BME280;63641;46.526;24.612;2023-07-20T11:19:22;96634.03;;;27.73;48.26
75146;BME280;63641;46.526;24.612;2023-07-20T11:21:57;96647.88;;;27.31;49.23
75146;BME280;63641;46.526;24.612;2023-07-20T11:24:29;96652.53;;;26.79;50.53
75146;BME280;63641;46.526;24.612;2023-07-20T11:26:56;96653.56;;;26.08;53.29
75146;BME280;63641;46.526;24.612;2023-07-20T11:29:23;96648.00;;;25.29;55.62
75146;BME280;63641;46.526;24.612;2023-07-20T11:31:59;96676.41;;;24.97;57.27
75146;BME280;63641;46.526;24.612;2023-07-20T11:34:26;96673.47;;;24.47;58.01
75146;BME280;63641;46.526;24.612;2023-07-20T11:36:54;96644.31;;;23.91;57.81
75146;BME280;63641;46.526;24.612;2023-07-20T11:39:24;96664.75;;;23.79;57.49
75146;BME280;63641;46.526;24.612;2023-07-20T11:41:55;96657.13;;;23.66;57.28
75146;BME280;63641;46.526;24.612;2023-07-20T11:44:24;96677.31;;;23.73;56.64
75146;BME280;63641;46.526;24.612;2023-07-20T11:47:07;96691.91;;;23.70;56.85
75146;BME280;63641;46.526;24.612;2023-07-20T11:49:42;96677.97;;;23.59;57.55
75146;BME280;63641;46.526;24.612;2023-07-20T11:52:11;96659.06;;;23.61;56.98
75146;BME280;63641;46.526;24.612;2023-07-20T11:54:39;96660.78;;;23.77;57.07
75146;BME280;63641;46.526;24.612;2023-07-20T11:57:18;96658.47;;;23.90;56.60
75146;BME280;63641;46.526;24.612;2023-07-20T12:00:00;96657.38;;;23.98;56.12
75146;BME280;63641;46.526;24.612;2023-07-20T12:02:29;96656.22;;;24.06;55.96
75146;BME280;63641;46.526;24.612;2023-07-20T12:04:57;96650.75;;;24.13;55.41
75146;BME280;63641;46.526;24.612;2023-07-20T12:07:26;96644.84;;;24.22;55.60
75146;BME280;63641;46.526;24.612;2023-07-20T12:10:09;96637.44;;;24.37;55.73
75146;BME280;63641;46.526;24.612;2023-07-20T12:12:40;96643.06;;;24.51;55.89
75146;BME280;63641;46.526;24.612;2023-07-20T12:17:44;96650.66;;;24.79;54.77
75146;BME280;63641;46.526;24.612;2023-07-20T12:20:12;96647.91;;;24.79;54.74
75146;BME280;63641;46.526;24.612;2023-07-20T12:22:40;96657.38;;;24.81;54.96
75146;BME280;63641;46.526;24.612;2023-07-20T12:25:10;96668.47;;;24.89;54.95
75146;BME280;63641;46.526;24.612;2023-07-20T12:27:36;96701.34;;;25.01;54.62
75146;BME280;63641;46.526;24.612;2023-07-20T12:30:07;96707.25;;;25.03;54.58
75146;BME280;63641;46.526;24.612;2023-07-20T12:32:34;96704.81;;;24.83;54.58
75146;BME280;63641;46.526;24.612;2023-07-20T12:35:01;96711.88;;;24.67;54.90
75146;BME280;63641;46.526;24.612;2023-07-20T12:37:29;96721.34;;;24.62;54.99
75146;BME280;63641;46.526;24.612;2023-07-20T12:39:56;96729.59;;;24.55;55.06
75146;BME280;63641;46.526;24.612;2023-07-20T12:42:22;96701.41;;;24.31;54.55
75146;BME280;63641;46.526;24.612;2023-07-20T12:44:49;96718.72;;;24.25;54.79
75146;BME280;63641;46.526;24.612;2023-07-20T12:47:18;96707.63;;;24.18;55.10
75146;BME280;63641;46.526;24.612;2023-07-20T12:49:45;96684.25;;;24.08;55.61
75146;BME280;63641;46.526;24.612;2023-07-20T12:52:13;96672.75;;;23.95;55.86
75146;BME280;63641;46.526;24.612;2023-07-20T12:54:40;96673.38;;;23.74;56.24
75146;BME280;63641;46.526;24.612;2023-07-20T12:57:07;96678.75;;;23.60;56.43
75146;BME280;63641;46.526;24.612;2023-07-20T12:59:36;96677.78;;;23.34;56.47
75146;BME280;63641;46.526;24.612;2023-07-20T13:02:03;96683.22;;;23.27;57.00
75146;BME280;63641;46.526;24.612;2023-07-20T13:04:30;96675.69;;;23.24;56.93
75146;BME280;63641;46.526;24.612;2023-07-20T13:06:57;96654.81;;;23.27;56.88
75146;BME280;63641;46.526;24.612;2023-07-20T13:09:25;96660.09;;;23.43;56.61
75146;BME280;63641;46.526;24.612;2023-07-20T13:11:52;96660.59;;;23.59;56.32
75146;BME280;63641;46.526;24.612;2023-07-20T13:14:19;96666.31;;;23.80;55.75
75146;BME280;63641;46.526;24.612;2023-07-20T13:16:46;96663.28;;;24.00;55.30
75146;BME280;63641;46.526;24.612;2023-07-20T13:19:13;96664.19;;;24.18;55.15
75146;BME280;63641;46.526;24.612;2023-07-20T13:21:40;96652.00;;;24.30;54.65